This is the latest recevied weather packets stored in our database for station/object N8ESC. If no packets are shown the sender has not sent any weather packets the latest 10 day(s).
| Time | Temp. | Humidity | Pressure | Rain* | Wind** | Luminosity | Snow |
|---|---|---|---|---|---|---|---|
| 1777834686 | 15° C | 56% | 1000.2 hPa | 0 mm | - | 231 W/m² | - |
| 1777834382 | 15° C | 56% | 1000.5 hPa | 0 mm | - | 837 W/m² | - |
| 1777834081 | 15.56° C | 55% | 1000.5 hPa | 0 mm | - | 267 W/m² | - |
| 1777833778 | 17.22° C | 49% | 1000.7 hPa | 0 mm | - | 750 W/m² | - |
| 1777833474 | 16.67° C | 50% | 1000.5 hPa | 0 mm | - | 741 W/m² | - |
| 1777833172 | 16.11° C | 52% | 1000.6 hPa | 0 mm | - | 837 W/m² | - |
| 1777832869 | 16.67° C | 51% | 1000.8 hPa | 0 mm | - | 695 W/m² | - |
| 1777832568 | 16.67° C | 50% | 1000.9 hPa | 0 mm | - | 750 W/m² | - |
| 1777832264 | 16.67° C | 51% | 1001 hPa | 0 mm | - | 611 W/m² | - |
| 1777831962 | 15.56° C | 53% | 1001.2 hPa | 0 mm | - | 249 W/m² | - |
| 1777831658 | 16.11° C | 52% | 1001.1 hPa | 0 mm | - | 322 W/m² | - |
| 1777831356 | 15.56° C | 53% | 1001.2 hPa | 0 mm | - | 768 W/m² | - |
| 1777831052 | 15.56° C | 54% | 1001.1 hPa | 0 mm | - | 730 W/m² | - |
| 1777830751 | 15° C | 57% | 1001.2 hPa | 0 mm | - | 709 W/m² | - |
| 1777830446 | 14.44° C | 58% | 1001.2 hPa | 0 mm | - | 702 W/m² | - |
| 1777830145 | 13.89° C | 58% | 1001.5 hPa | 0 mm | - | 703 W/m² | - |
| 1777829845 | 13.89° C | 60% | 1001.5 hPa | 0 mm | - | 701 W/m² | - |
| 1777829541 | 13.89° C | 58% | 1001.5 hPa | 0 mm | - | 695 W/m² | - |
| 1777829238 | 13.89° C | 58% | 1001.6 hPa | 0 mm | - | 694 W/m² | - |
| 1777828935 | 13.89° C | 58% | 1001.7 hPa | 0 mm | - | 695 W/m² | - |
| 1777828631 | 14.44° C | 57% | 1001.8 hPa | 0 mm | - | 694 W/m² | - |
| 1777828329 | 14.44° C | 55% | 1001.9 hPa | 0 mm | - | 690 W/m² | - |
| 1777828026 | 14.44° C | 55% | 1002.1 hPa | 0 mm | - | 689 W/m² | - |
| 1777827723 | 13.89° C | 59% | 1002 hPa | 0 mm | - | 684 W/m² | - |
| 1777827420 | 13.89° C | 59% | 1002.2 hPa | 0 mm | - | 678 W/m² | - |
* Rain latest hour (hover to see other rain measurements)
** Current wind speed in m/s (hover to see current wind gust speed)